Mora, New Mexico
Current Conditions -  °F | °C
As of 11:53 AM on Thursday 27 Nov 2014 (Local Time) from KLVS Reporting Station
Clear Clear  
Wind Chill: 63°   Ceiling: Unl
Heat Index: 63°   Visibility: 10mi
Dew Point: 16°   Wind: 9mph
Humidity: 16%   Direction: 180°S
Pressure: 30.36"   Gusts: NA
Location:  35.97°N, 105.33°W
Report Text: KLVS 271853Z AUTO 18008KT 10SM CLR 17/M09 A3036 RMK AO2 SLP221 T01721089
Loading
Personal Weather Stations






























Interactive Weather Map New forecast layout! Learn more

10-Day Weather Forecast

Advertisements
Track Severe Weather on mobile